Pagina principale
METAR-TAF:

METAR-TAF

Aeroporti :

Aeroporto di N'Djamena-Hassan Djamous

N'Djamena, Ciad

latitudine: 12-08N, longitudine: 015-02E, altezza: 295 m

Osservazione

Il bollettino è stato emesso 59 minuti fa, alle 12:00 UTC
Vento 4 kt da direzioni variabili
Temperature 38°C
Umidità 23%
Pressione 1008 hPa
Visibilità: 8000 m

METAR: FTTJ 201200Z VRB04KT 8000 NSC 38/13 Q1008 NOSIG

Ora: 13:59 (12:59 UTC)

Previsione

Il bollettino è stato emesso 1 ora e 59 minuti fa, alle 11:00 UTC
Previsione valida dal 20 alle 12 UTC al 21 alle 18 UTC
Vento 5 kt da direzioni variabili
Visibilità: 8000 m
Temporaneamente
dal 21 alle 05 UTC al 21 alle 08 UTC
Visibilità: 4000 m
foschia

TAF: FTTJ 201100Z 2012/2118 VRB05KT 8000 NSC TEMPO 2105/2108 4000 HZ

Osservazioni e previsioni meteorologiche di più di 4000 aeroporti (messaggi METAR e TAF).

Le stazioni disponibili sono rappresentate dai dischi gialli e rossi sulla carta.

Puntare il mouse per vedere il nome della stazione.

Clicca sopra per visualizzare le osservazioni e previsioni meteorologiche.

Per cambiare la mappa : fare clic sui pulsanti verdi con una croce nera per ingrandire, il pulsante verde con un trattino per diminuire, o sulla freccia verde per le mappe adiacenti.


METAR-TAF: